createdAt,value
2018-01-16T06:42:00.171Z,3
2018-01-16T06:53:30.923Z,7
2018-01-16T06:55:00.978Z,10
2018-01-16T06:56:31.136Z,13
2018-01-16T06:58:01.160Z,17
2018-01-16T06:59:31.274Z,20
2018-01-16T07:00:31.328Z,23
2018-01-16T07:03:31.510Z,20
2018-01-16T07:04:31.579Z,23
2018-01-16T07:05:01.592Z,27
2018-01-16T07:05:31.624Z,30
2018-01-16T07:06:01.654Z,33
2018-01-16T07:06:31.660Z,37
2018-01-16T07:07:01.751Z,43
2018-01-16T07:07:31.713Z,47
2018-01-16T07:08:01.763Z,53
2018-01-16T07:08:31.803Z,57
2018-01-16T07:09:01.869Z,60
2018-01-16T07:09:31.847Z,63
2018-01-16T07:11:01.950Z,57
2018-01-16T07:11:31.967Z,53
2018-01-16T07:12:32.086Z,57
2018-01-16T07:13:02.079Z,63
2018-01-16T07:13:32.105Z,73
2018-01-16T07:14:02.153Z,80
2018-01-16T07:14:32.149Z,83
2018-01-16T07:15:02.197Z,87
2018-01-16T07:16:02.289Z,83
2018-01-16T07:17:32.614Z,87
2018-01-16T07:18:02.402Z,90
2018-01-16T07:18:32.441Z,97
2018-01-16T07:19:02.547Z,103
2018-01-16T07:19:32.531Z,107
2018-01-16T07:20:02.569Z,113
2018-01-16T07:20:32.558Z,117
2018-01-16T07:23:32.724Z,113
2018-01-16T07:24:02.818Z,110
2018-01-16T07:24:32.788Z,100
2018-01-16T07:25:02.843Z,87
2018-01-16T07:25:32.820Z,73
2018-01-16T07:26:02.888Z,63
2018-01-16T07:26:32.907Z,53
2018-01-16T07:27:02.945Z,47
2018-01-16T07:27:32.947Z,40
2018-01-16T07:28:03.008Z,37
2018-01-16T07:28:33.004Z,33
2018-01-16T07:29:03.077Z,30
2018-01-16T07:29:33.113Z,27
2018-01-16T07:30:03.151Z,23
2018-01-16T07:30:33.146Z,20
2018-01-16T07:33:03.321Z,23
2018-01-16T07:34:33.465Z,27
2018-01-16T07:35:33.477Z,30
2018-01-16T07:36:03.478Z,33
2018-01-16T07:36:33.525Z,40
2018-01-16T07:37:33.603Z,37
2018-01-16T07:38:33.663Z,40
2018-01-16T07:41:03.840Z,43
2018-01-16T07:42:03.925Z,47
2018-01-16T07:42:33.942Z,50
2018-01-16T07:43:03.957Z,53
2018-01-16T07:43:33.998Z,60
2018-01-16T07:44:03.986Z,70
2018-01-16T07:44:34.000Z,80
2018-01-16T07:45:04.073Z,93
2018-01-16T07:45:34.052Z,117
2018-01-16T07:46:04.142Z,143
2018-01-16T07:46:34.224Z,177
2018-01-16T07:47:04.221Z,197
2018-01-16T07:47:34.206Z,217
2018-01-16T07:48:04.301Z,233
2018-01-16T07:48:34.292Z,247
2018-01-16T07:49:04.298Z,253
2018-01-16T07:50:04.404Z,247
2018-01-16T07:50:34.407Z,233
2018-01-16T07:51:04.457Z,217
2018-01-16T07:51:34.435Z,203
2018-01-16T07:52:04.538Z,177
2018-01-16T07:52:34.541Z,150
2018-01-16T07:53:04.535Z,130
2018-01-16T07:53:34.585Z,117
2018-01-16T07:54:04.596Z,107
2018-01-16T07:54:34.629Z,97
2018-01-16T07:55:04.656Z,90
2018-01-16T07:55:34.660Z,87
2018-01-16T07:56:04.831Z,77
2018-01-16T07:56:34.757Z,73
2018-01-16T07:57:04.790Z,70
2018-01-16T07:57:34.799Z,73
2018-01-16T07:58:04.834Z,80
2018-01-16T07:58:34.871Z,87
2018-01-16T07:59:04.951Z,103
2018-01-16T07:59:34.914Z,113
2018-01-16T08:00:04.974Z,127
2018-01-16T08:00:34.975Z,137
2018-01-16T08:01:05.093Z,140
2018-01-16T08:01:35.037Z,143
2018-01-16T08:02:05.090Z,140
2018-01-16T08:02:35.110Z,137
2018-01-16T08:03:05.154Z,133
2018-01-16T08:03:35.192Z,140
2018-01-16T08:04:05.282Z,147
2018-01-16T08:04:35.262Z,143
2018-01-16T08:05:05.270Z,140
2018-01-16T08:05:35.322Z,143
2018-01-16T08:06:05.350Z,163
2018-01-16T08:06:35.345Z,210
2018-01-16T08:07:05.444Z,260
2018-01-16T08:07:35.479Z,323
2018-01-16T08:08:05.514Z,383
2018-01-16T08:08:35.521Z,443
2018-01-16T08:09:05.608Z,533
2018-01-16T08:09:35.550Z,640
2018-01-16T08:10:05.620Z,773
2018-01-16T08:10:35.604Z,900
2018-01-16T08:11:05.648Z,1003
2018-01-16T08:11:35.679Z,1140
2018-01-16T08:12:05.719Z,1293
2018-01-16T08:12:35.729Z,1357
2018-01-16T08:13:05.760Z,1417
2018-01-16T08:13:35.796Z,1410
2018-01-16T08:14:05.906Z,1437
2018-01-16T08:14:35.850Z,1450
2018-01-16T08:15:05.876Z,1453
2018-01-16T08:15:35.922Z,1503
2018-01-16T08:16:05.949Z,1607
2018-01-16T08:16:35.957Z,1693
2018-01-16T08:17:06.025Z,1757
2018-01-16T08:17:36.012Z,1803
2018-01-16T08:18:06.059Z,1790
2018-01-16T08:18:36.114Z,1760
2018-01-16T08:19:06.131Z,1700
2018-01-16T08:19:36.138Z,1570
2018-01-16T08:20:06.206Z,1480
2018-01-16T08:20:36.207Z,1453
2018-01-16T08:21:06.255Z,1413
2018-01-16T08:21:36.341Z,1380
2018-01-16T08:22:06.347Z,1347
2018-01-16T08:23:06.424Z,1337
2018-01-16T08:23:36.461Z,1373
2018-01-16T08:24:06.704Z,1417
2018-01-16T08:24:36.506Z,1480
2018-01-16T08:25:06.531Z,2260
2018-01-16T08:25:36.570Z,2563
2018-01-16T08:26:06.620Z,2087
2018-01-16T08:26:36.640Z,2197
2018-01-16T08:27:06.702Z,2500
2018-01-16T08:27:36.686Z,2817
2018-01-16T08:28:07.432Z,2990
2018-01-16T08:28:36.732Z,3050
2018-01-16T08:29:06.786Z,3087
2018-01-16T08:29:36.826Z,3320
2018-01-16T08:30:06.834Z,3677
2018-01-16T08:30:36.887Z,3423
2018-01-16T08:31:06.886Z,2913
2018-01-16T08:31:36.963Z,2743
2018-01-16T08:32:07.026Z,2313
2018-01-16T08:32:36.939Z,2403
2018-01-16T08:33:37.025Z,2610
2018-01-16T08:34:07.190Z,2910
2018-01-16T08:34:37.162Z,3283
2018-01-16T08:35:07.139Z,3657
2018-01-16T08:35:37.117Z,3953
2018-01-16T08:36:07.225Z,4053
2018-01-16T08:36:37.236Z,3687
2018-01-16T08:37:07.312Z,3223
2018-01-16T08:37:37.244Z,3453
2018-01-16T08:38:07.328Z,2167
2018-01-16T08:38:37.662Z,1640
2018-01-16T08:39:07.549Z,1290
2018-01-16T08:39:37.366Z,1033
2018-01-16T08:40:07.480Z,850
2018-01-16T08:40:37.465Z,717
2018-01-16T08:41:07.492Z,623
2018-01-16T08:41:37.563Z,550
2018-01-16T08:42:07.597Z,487
2018-01-16T08:42:37.593Z,433
2018-01-16T08:43:07.660Z,380
2018-01-16T08:43:37.626Z,333
2018-01-16T08:44:07.720Z,287
2018-01-16T08:44:37.700Z,240
2018-01-16T08:45:07.732Z,213
2018-01-16T08:45:37.740Z,187
2018-01-16T08:46:37.809Z,193
2018-01-16T08:47:07.852Z,190
2018-01-16T08:47:37.876Z,213
2018-01-16T08:48:07.916Z,173
2018-01-16T08:49:08.048Z,163
2018-01-16T08:49:37.998Z,153
2018-01-16T08:50:08.033Z,160
2018-01-16T08:51:08.085Z,157
2018-01-16T08:51:38.156Z,153
2018-01-16T08:52:08.192Z,157
2018-01-16T08:53:38.269Z,167
2018-01-16T08:54:09.780Z,190
2018-01-16T08:54:38.361Z,203
2018-01-16T08:55:38.420Z,197
2018-01-16T08:56:08.454Z,203
2018-01-16T08:56:38.417Z,220
2018-01-16T08:57:08.524Z,233
2018-01-16T08:58:08.548Z,240
2018-01-16T08:58:38.566Z,237
2018-01-16T08:59:38.686Z,240
2018-01-16T09:00:08.708Z,257
2018-01-16T09:00:38.690Z,273
2018-01-16T09:01:08.708Z,297
2018-01-16T09:01:38.729Z,307
2018-01-16T09:02:08.785Z,303
2018-01-16T09:02:38.800Z,283
2018-01-16T09:03:08.817Z,270
2018-01-16T09:03:38.846Z,263
2018-01-16T09:04:08.942Z,260
2018-01-16T09:04:38.917Z,270
2018-01-16T09:05:08.973Z,287
2018-01-16T09:05:38.972Z,303
2018-01-16T09:06:09.007Z,307
2018-01-16T09:06:39.100Z,313
2018-01-16T09:07:09.086Z,330
2018-01-16T09:07:39.116Z,340
2018-01-16T09:08:09.176Z,347
2018-01-16T09:08:39.205Z,330
2018-01-16T09:09:09.218Z,303
2018-01-16T09:09:39.205Z,290
2018-01-16T09:10:09.311Z,307
2018-01-16T09:10:39.309Z,320
2018-01-16T09:11:09.354Z,330
2018-01-16T09:11:39.375Z,313
2018-01-16T09:12:09.435Z,320
2018-01-16T09:13:09.491Z,353
2018-01-16T09:13:39.536Z,390
2018-01-16T09:14:09.597Z,433
2018-01-16T09:14:39.604Z,513
2018-01-16T09:15:09.602Z,593
2018-01-16T09:15:39.625Z,650
2018-01-16T09:16:09.688Z,677
2018-01-16T09:16:39.717Z,733
2018-01-16T09:17:09.704Z,777
2018-01-16T09:17:39.738Z,830
2018-01-16T09:18:09.835Z,967
2018-01-16T09:18:39.822Z,1023
2018-01-16T09:19:10.109Z,1053
2018-01-16T09:19:39.843Z,1167
2018-01-16T09:20:09.908Z,1417
2018-01-16T09:20:39.931Z,1453
2018-01-16T09:21:09.970Z,1573
2018-01-16T09:21:39.987Z,1653
2018-01-16T09:22:10.045Z,1743
2018-01-16T09:22:40.108Z,1853
2018-01-16T09:23:10.111Z,1920
2018-01-16T09:23:40.131Z,2103
2018-01-16T09:24:10.184Z,2220
2018-01-16T09:24:40.172Z,2133
2018-01-16T09:25:10.223Z,1967
2018-01-16T09:25:40.286Z,1867
2018-01-16T09:26:10.294Z,1703
2018-01-16T09:26:40.288Z,1547
2018-01-16T09:27:10.371Z,1403
2018-01-16T09:27:40.329Z,1377
2018-01-16T09:28:10.354Z,1410
2018-01-16T09:28:40.371Z,1357
2018-01-16T09:29:10.512Z,1273
2018-01-16T09:29:40.439Z,1137
2018-01-16T09:30:10.573Z,1007
2018-01-16T09:30:40.554Z,817
2018-01-16T09:31:10.606Z,647
2018-01-16T09:31:40.594Z,580
2018-01-16T09:32:10.640Z,510
2018-01-16T09:32:40.636Z,487
2018-01-16T09:33:10.676Z,443
2018-01-16T09:33:40.683Z,423
2018-01-16T09:34:10.802Z,390
2018-01-16T09:34:40.787Z,380
2018-01-16T09:35:10.842Z,420
2018-01-16T09:35:40.799Z,437
2018-01-16T09:36:10.862Z,433
2018-01-16T09:36:40.876Z,470
2018-01-16T09:37:10.910Z,510
2018-01-16T09:37:40.951Z,563
2018-01-16T09:38:11.011Z,640
2018-01-16T09:38:41.057Z,713
2018-01-16T09:39:11.089Z,787
2018-01-16T09:39:41.090Z,860
2018-01-16T09:40:11.099Z,933
2018-01-16T09:40:41.127Z,1037
2018-01-16T09:41:11.159Z,1220
2018-01-16T09:41:41.236Z,1527
2018-01-16T09:42:11.241Z,2047
2018-01-16T09:42:41.277Z,2753
2018-01-16T09:43:11.283Z,3760
2018-01-16T09:43:41.378Z,5013
2018-01-16T09:44:11.448Z,5653
2018-01-16T09:44:41.377Z,5563
2018-01-16T09:45:11.463Z,5560
2018-01-16T09:45:41.577Z,4890
2018-01-16T09:46:11.521Z,4763
2018-01-16T09:46:41.497Z,4620
2018-01-16T09:47:11.524Z,4667
2018-01-16T09:47:42.722Z,4267
2018-01-16T09:48:11.601Z,3953
2018-01-16T09:48:41.600Z,3873
2018-01-16T09:49:11.676Z,3800
2018-01-16T09:49:41.689Z,3747
2018-01-16T09:50:11.708Z,3603
2018-01-16T09:50:41.738Z,3410
2018-01-16T09:51:11.793Z,3093
2018-01-16T09:51:41.811Z,2717
2018-01-16T09:52:11.853Z,2353
2018-01-16T09:52:41.856Z,2033
2018-01-16T09:53:11.925Z,1753
2018-01-16T09:53:41.936Z,1550
2018-01-16T09:54:12.166Z,1423
2018-01-16T09:54:41.980Z,1320
2018-01-16T09:55:12.028Z,1280
2018-01-16T09:55:42.033Z,1310
2018-01-16T09:56:12.111Z,1390
2018-01-16T09:56:42.119Z,1510
2018-01-16T09:57:12.173Z,1610
2018-01-16T09:57:42.165Z,1680
2018-01-16T09:58:12.219Z,1713
2018-01-16T09:58:42.225Z,1787
2018-01-16T09:59:12.360Z,1863
2018-01-16T09:59:42.376Z,1927
2018-01-16T10:00:12.342Z,1960
2018-01-16T10:00:42.374Z,1953
2018-01-16T10:01:12.434Z,1937
2018-01-16T10:01:42.462Z,1897
2018-01-16T10:02:12.507Z,1833
2018-01-16T10:02:42.576Z,1787
2018-01-16T10:03:12.586Z,1720
2018-01-16T10:03:42.566Z,1670
2018-01-16T10:04:12.655Z,1660
2018-01-16T10:04:42.654Z,1760
2018-01-16T10:05:12.676Z,1967
2018-01-16T10:05:42.685Z,2217
2018-01-16T10:06:12.773Z,2423
2018-01-16T10:06:42.725Z,2533
2018-01-16T10:07:12.794Z,2587
2018-01-16T10:07:42.855Z,2577
2018-01-16T10:08:12.900Z,2637
2018-01-16T10:08:42.909Z,2780
2018-01-16T10:09:13.008Z,3060
2018-01-16T10:09:42.958Z,3407
2018-01-16T10:10:12.973Z,3667
2018-01-16T10:10:42.985Z,3623
2018-01-16T10:11:13.084Z,3437
2018-01-16T10:11:43.087Z,3303
2018-01-16T10:12:13.162Z,3357
2018-01-16T10:12:43.128Z,3523
2018-01-16T10:13:13.149Z,3637
2018-01-16T10:13:43.219Z,3800
2018-01-16T10:14:13.342Z,3547
2018-01-16T10:14:43.210Z,3407
2018-01-16T10:15:13.302Z,3660
2018-01-16T10:15:43.295Z,3600
2018-01-16T10:16:13.391Z,3517
2018-01-16T10:16:43.365Z,3350
2018-01-16T10:17:13.410Z,3093
2018-01-16T10:17:43.474Z,2780
2018-01-16T10:18:13.510Z,2497
2018-01-16T10:18:43.469Z,2213
2018-01-16T10:19:13.565Z,2030
2018-01-16T10:19:43.548Z,1953
2018-01-16T10:20:13.586Z,1890
2018-01-16T10:20:43.593Z,1877
2018-01-16T10:21:13.662Z,1977
2018-01-16T10:21:43.662Z,2103
2018-01-16T10:22:13.689Z,2257
2018-01-16T10:22:43.759Z,2393
2018-01-16T10:23:13.753Z,2617
2018-01-16T10:23:43.759Z,2847
2018-01-16T10:24:13.854Z,3077
2018-01-16T10:24:43.859Z,3220
2018-01-16T10:25:13.862Z,3413
2018-01-16T10:25:43.896Z,3720
2018-01-16T10:26:13.928Z,4187
2018-01-16T10:26:44.226Z,4420
2018-01-16T10:27:14.012Z,4693
2018-01-16T10:27:43.996Z,5033
2018-01-16T10:28:14.083Z,5113
2018-01-16T10:28:44.068Z,5083
2018-01-16T10:29:14.122Z,5220
2018-01-16T10:29:44.204Z,5270
2018-01-16T10:30:14.169Z,5110
2018-01-16T10:30:44.259Z,5137
2018-01-16T10:31:14.247Z,5080
2018-01-16T10:31:44.270Z,5197
2018-01-16T10:32:14.295Z,5187
2018-01-16T10:32:44.398Z,4950
2018-01-16T10:33:14.410Z,4597
2018-01-16T10:33:44.400Z,4227
2018-01-16T10:34:14.493Z,4053
2018-01-16T10:34:44.719Z,3927
2018-01-16T10:35:14.512Z,3840
2018-01-16T10:35:44.574Z,3720
2018-01-16T10:36:14.566Z,3653
2018-01-16T10:36:44.568Z,3577
2018-01-16T10:37:14.634Z,3497
2018-01-16T10:37:44.643Z,3457
2018-01-16T10:38:14.709Z,3433
2018-01-16T10:38:44.729Z,3430
2018-01-16T10:39:14.754Z,3433
2018-01-16T10:39:44.802Z,3460
2018-01-16T10:40:14.815Z,3507
2018-01-16T10:40:44.799Z,3580
2018-01-16T10:41:14.886Z,3693
2018-01-16T10:41:44.863Z,3843
2018-01-16T10:42:14.937Z,4030
2018-01-16T10:42:44.949Z,4203
2018-01-16T10:43:14.966Z,4387
2018-01-16T10:43:44.993Z,4537
2018-01-16T10:44:15.029Z,4613
2018-01-16T10:44:45.067Z,4710
2018-01-16T10:45:15.098Z,4757
2018-01-16T10:45:45.119Z,4770
2018-01-16T10:46:15.174Z,4787
2018-01-16T10:46:45.189Z,4777
2018-01-16T10:47:15.297Z,4727
2018-01-16T10:47:45.377Z,4680
2018-01-16T10:48:15.280Z,4650
2018-01-16T10:48:45.302Z,4640
2018-01-16T10:49:15.376Z,4607
2018-01-16T10:49:45.427Z,4553
2018-01-16T10:50:15.436Z,4480
2018-01-16T10:50:45.461Z,4407
2018-01-16T10:51:15.526Z,4343
2018-01-16T10:51:45.532Z,4290
2018-01-16T10:52:15.546Z,4247
2018-01-16T10:52:45.558Z,4183
2018-01-16T10:53:15.618Z,4080
2018-01-16T10:53:45.626Z,4007
2018-01-16T10:54:15.695Z,3983
2018-01-16T10:54:45.717Z,4047
2018-01-16T10:55:15.805Z,4137
2018-01-16T10:55:45.740Z,4243
2018-01-16T10:56:15.800Z,4350
2018-01-16T10:56:45.833Z,4360
2018-01-16T10:57:15.876Z,4313
2018-01-16T10:57:45.926Z,4187
2018-01-16T10:58:15.968Z,4003
2018-01-16T10:58:45.942Z,3767
2018-01-16T10:59:16.039Z,3477
2018-01-16T10:59:46.065Z,3180
2018-01-16T11:00:16.079Z,2967
2018-01-16T11:00:46.065Z,2773
2018-01-16T11:01:16.139Z,2700
2018-01-16T11:01:46.089Z,2640
2018-01-16T11:02:16.213Z,2507
2018-01-16T11:02:46.245Z,2380
2018-01-16T11:03:16.231Z,2257
2018-01-16T11:03:46.269Z,2163
2018-01-16T11:04:16.311Z,2083
2018-01-16T11:04:46.378Z,1970
2018-01-16T11:05:16.362Z,1900
2018-01-16T11:05:46.401Z,1823
2018-01-16T11:06:16.409Z,1773
2018-01-16T11:06:46.473Z,1767
2018-01-16T11:07:16.468Z,1800
2018-01-16T11:07:46.480Z,1803
2018-01-16T11:08:16.580Z,1793
2018-01-16T11:08:46.518Z,1777
2018-01-16T11:09:16.586Z,1763
2018-01-16T11:09:46.825Z,1757
2018-01-16T11:10:16.649Z,1747
2018-01-16T11:10:46.668Z,1720
2018-01-16T11:11:16.709Z,1687
2018-01-16T11:11:46.760Z,1653
2018-01-16T11:12:16.751Z,1637
2018-01-16T11:12:46.796Z,1640
2018-01-16T11:13:16.821Z,1633
2018-01-16T11:13:46.841Z,1653
2018-01-16T11:14:16.883Z,1693
2018-01-16T11:14:46.899Z,1730
2018-01-16T11:15:16.947Z,1757
2018-01-16T11:15:46.964Z,1773
2018-01-16T11:16:17.056Z,1780
2018-01-16T11:16:47.032Z,1783
2018-01-16T11:17:17.052Z,1787
2018-01-16T11:17:47.099Z,1790
2018-01-16T11:18:17.130Z,1800
2018-01-16T11:18:47.159Z,1813
2018-01-16T11:19:17.249Z,1827
2018-01-16T11:19:47.203Z,1840
2018-01-16T11:20:17.302Z,1853
2018-01-16T11:20:47.338Z,1860
2018-01-16T11:21:17.394Z,1867
2018-01-16T11:22:17.373Z,1860
2018-01-16T11:22:47.421Z,1863
2018-01-16T11:23:17.519Z,1860
2018-01-16T11:23:47.478Z,1853
2018-01-16T11:24:17.527Z,1843
2018-01-16T11:24:47.530Z,1833
2018-01-16T11:25:17.557Z,1813
2018-01-16T11:25:47.562Z,1790
2018-01-16T11:26:17.904Z,1770
2018-01-16T11:26:47.639Z,1743
2018-01-16T11:27:17.686Z,1713
2018-01-16T11:27:47.694Z,1690
2018-01-16T11:28:17.841Z,1667
2018-01-16T11:28:47.766Z,1643
2018-01-16T11:29:17.788Z,1623
2018-01-16T11:29:47.820Z,1583
2018-01-16T11:30:17.862Z,1547
2018-01-16T11:30:47.863Z,1507
2018-01-16T11:31:17.992Z,1467
2018-01-16T11:31:47.943Z,1437
2018-01-16T11:32:17.979Z,1410
2018-01-16T11:32:47.994Z,1367
2018-01-16T11:33:18.063Z,1317
2018-01-16T11:33:48.061Z,1267
2018-01-16T11:34:18.114Z,1223
2018-01-16T11:34:48.152Z,1177
2018-01-16T11:35:18.156Z,1157
2018-01-16T11:35:48.186Z,1163
2018-01-16T11:36:18.309Z,1167
2018-01-16T11:36:48.280Z,1183
2018-01-16T11:37:18.339Z,1223
2018-01-16T11:37:48.336Z,1217
2018-01-16T11:38:18.356Z,1160
2018-01-16T11:38:48.434Z,1073
2018-01-16T11:39:18.463Z,983
2018-01-16T11:39:48.456Z,907
2018-01-16T11:40:18.510Z,860
2018-01-16T11:40:48.544Z,827
2018-01-16T11:41:18.641Z,800
2018-01-16T11:41:48.591Z,793
2018-01-16T11:42:18.689Z,843
2018-01-16T11:42:48.671Z,970
2018-01-16T11:43:18.756Z,1200
2018-01-16T11:43:48.716Z,1510
2018-01-16T11:44:18.763Z,1887
2018-01-16T11:44:48.817Z,2280
2018-01-16T11:45:18.810Z,2660
2018-01-16T11:45:48.786Z,3060
2018-01-16T11:46:18.902Z,3443
2018-01-16T11:46:48.885Z,3787
2018-01-16T11:47:18.919Z,4077
2018-01-16T11:47:48.951Z,4330
2018-01-16T11:48:18.976Z,4550
2018-01-16T11:48:49.000Z,4793
2018-01-16T11:49:19.037Z,4923
2018-01-16T11:49:49.075Z,4823
2018-01-16T11:50:19.195Z,4733
2018-01-16T11:50:49.134Z,4723
2018-01-16T11:51:19.699Z,4747
2018-01-16T11:51:49.198Z,4780
2018-01-16T11:52:19.238Z,4797
2018-01-16T11:52:49.256Z,4787
2018-01-16T11:53:19.306Z,4770
2018-01-16T11:53:49.279Z,4723
2018-01-16T11:54:19.364Z,4670
2018-01-16T11:54:49.379Z,4610
2018-01-16T11:55:19.430Z,4517
2018-01-16T11:55:49.424Z,4387
2018-01-16T11:56:19.527Z,4240
2018-01-16T11:56:49.550Z,4097
2018-01-16T11:57:19.511Z,4010
2018-01-16T11:57:49.608Z,3960
2018-01-16T11:58:19.592Z,3923
2018-01-16T11:58:49.611Z,3857
2018-01-16T11:59:19.647Z,3787
2018-01-16T11:59:49.694Z,3700
2018-01-16T12:00:19.705Z,3620
2018-01-16T12:00:49.743Z,3550
2018-01-16T12:01:19.783Z,3470
2018-01-16T12:01:49.818Z,3340
2018-01-16T12:02:19.844Z,3163
2018-01-16T12:02:49.850Z,2970
2018-01-16T12:03:19.983Z,2813
2018-01-16T12:03:49.908Z,2693
2018-01-16T12:04:19.946Z,2583
2018-01-16T12:04:49.998Z,2467
2018-01-16T12:05:20.019Z,2330
2018-01-16T12:05:50.041Z,2173
2018-01-16T12:06:20.091Z,2020
2018-01-16T12:06:50.113Z,1870
2018-01-16T12:07:20.140Z,1717
2018-01-16T12:07:50.136Z,1567
2018-01-16T12:08:20.241Z,1433
2018-01-16T12:08:50.198Z,1330
2018-01-16T12:09:20.263Z,1243
2018-01-16T12:09:50.286Z,1137
2018-01-16T12:10:20.354Z,1037
2018-01-16T12:10:50.361Z,940
2018-01-16T12:11:20.439Z,857
2018-01-16T12:11:50.430Z,777
2018-01-16T12:12:20.461Z,707
2018-01-16T12:12:50.482Z,650
2018-01-16T12:13:20.508Z,617
2018-01-16T12:13:50.563Z,593
2018-01-16T12:14:20.580Z,587
2018-01-16T12:14:50.640Z,593
2018-01-16T12:15:20.687Z,613
2018-01-16T12:15:50.651Z,640
2018-01-16T12:16:20.717Z,667
2018-01-16T12:16:50.685Z,697
2018-01-16T12:17:20.773Z,723
2018-01-16T12:17:50.765Z,753
2018-01-16T12:18:20.830Z,793
2018-01-16T12:18:50.823Z,827
2018-01-16T12:19:20.871Z,853
2018-01-16T12:19:50.916Z,873
2018-01-16T12:20:20.962Z,877
2018-01-16T12:20:50.946Z,863
2018-01-16T12:21:21.018Z,853
2018-01-16T12:21:51.085Z,823
2018-01-16T12:22:21.068Z,800
2018-01-16T12:22:51.067Z,773
2018-01-16T12:23:21.185Z,757
2018-01-16T12:23:51.130Z,753
2018-01-16T12:24:21.209Z,760
2018-01-16T12:24:51.228Z,750
2018-01-16T12:25:21.251Z,727
2018-01-16T12:25:51.281Z,693
2018-01-16T12:26:21.389Z,667
2018-01-16T12:26:51.354Z,647
2018-01-16T12:27:21.403Z,640
2018-01-16T12:27:51.386Z,643
2018-01-16T12:28:21.494Z,663
2018-01-16T12:28:51.478Z,687
2018-01-16T12:29:21.557Z,700
2018-01-16T12:29:51.542Z,703
2018-01-16T12:30:21.541Z,693
2018-01-16T12:30:51.619Z,667
2018-01-16T12:31:21.681Z,647
2018-01-16T12:31:51.651Z,643
2018-01-16T12:32:21.680Z,640
2018-01-16T12:32:51.720Z,650
2018-01-16T12:33:21.773Z,667
2018-01-16T12:33:51.820Z,683
2018-01-16T12:34:21.891Z,710
2018-01-16T12:34:51.854Z,727
2018-01-16T12:35:51.914Z,720
2018-01-16T12:36:22.014Z,710
2018-01-16T12:36:51.964Z,703
2018-01-16T12:37:22.007Z,720
2018-01-16T12:37:52.048Z,730
2018-01-16T12:38:22.050Z,750
2018-01-16T12:38:52.063Z,753
2018-01-16T12:39:22.158Z,763
2018-01-16T12:40:22.191Z,780
2018-01-16T12:40:52.203Z,797
2018-01-16T12:41:22.532Z,817
2018-01-16T12:41:52.330Z,820
2018-01-16T12:42:22.361Z,840
2018-01-16T12:42:52.316Z,847
2018-01-16T12:43:22.390Z,857
2018-01-16T12:43:52.431Z,873
2018-01-16T12:44:22.979Z,893
2018-01-16T12:44:52.504Z,933
2018-01-16T12:45:22.533Z,910
2018-01-16T12:45:52.544Z,867
2018-01-16T12:46:22.551Z,847
2018-01-16T12:46:52.554Z,780
2018-01-16T12:47:22.640Z,723
2018-01-16T12:47:52.661Z,670
2018-01-16T12:48:22.690Z,647
2018-01-16T12:48:52.668Z,637
2018-01-16T12:49:22.731Z,603
2018-01-16T12:49:52.734Z,567
2018-01-16T12:50:22.761Z,523
2018-01-16T12:50:52.785Z,487
2018-01-16T12:51:22.873Z,470
2018-01-16T12:52:23.082Z,460
2018-01-16T12:52:52.934Z,447
2018-01-16T12:53:22.979Z,433
2018-01-16T12:53:52.976Z,417
2018-01-16T12:54:23.013Z,397
2018-01-16T12:54:53.052Z,377
2018-01-16T12:55:23.117Z,357
2018-01-16T12:55:53.096Z,353
2018-01-16T12:56:53.411Z,373
2018-01-16T12:57:23.208Z,413
2018-01-16T12:57:53.281Z,437
2018-01-16T12:58:23.315Z,450
2018-01-16T12:58:53.330Z,467
2018-01-16T12:59:23.321Z,460
2018-01-16T12:59:53.394Z,457
2018-01-16T13:00:23.442Z,463
2018-01-16T13:00:53.396Z,480
2018-01-16T13:01:23.469Z,500
2018-01-16T13:01:53.554Z,527
2018-01-16T13:02:23.521Z,530
2018-01-16T13:02:53.571Z,540
2018-01-16T13:03:23.634Z,573
2018-01-16T13:03:53.634Z,623
2018-01-16T13:04:23.683Z,727
2018-01-16T13:04:53.667Z,783
2018-01-16T13:05:23.690Z,773
2018-01-16T13:05:53.718Z,753
2018-01-16T13:06:23.760Z,713
2018-01-16T13:06:53.829Z,667
2018-01-16T13:07:23.817Z,640
2018-01-16T13:07:53.849Z,620
2018-01-16T13:08:23.871Z,557
2018-01-16T13:08:53.883Z,520
2018-01-16T13:09:23.949Z,553
2018-01-16T13:09:53.960Z,627
2018-01-16T13:10:24.011Z,657
2018-01-16T13:10:54.007Z,650
2018-01-16T13:11:24.062Z,620
2018-01-16T13:11:54.127Z,603
2018-01-16T13:12:24.154Z,613
2018-01-16T13:12:54.217Z,647
2018-01-16T13:13:24.174Z,723
2018-01-16T13:13:54.221Z,803
2018-01-16T13:14:24.253Z,853
2018-01-16T13:14:54.293Z,913
2018-01-16T13:15:24.366Z,973
2018-01-16T13:15:54.369Z,1017
2018-01-16T13:16:24.404Z,1047
2018-01-16T13:16:54.498Z,1090
2018-01-16T13:17:24.462Z,1153
2018-01-16T13:17:54.512Z,1163
2018-01-16T13:18:54.577Z,1223
2018-01-16T13:19:24.608Z,1193
2018-01-16T13:19:54.644Z,1083
2018-01-16T13:20:24.657Z,1050
2018-01-16T13:20:54.656Z,1063
2018-01-16T13:21:24.719Z,1077
2018-01-16T13:21:54.809Z,1073
2018-01-16T13:22:24.805Z,1053
2018-01-16T13:22:55.034Z,1097
2018-01-16T13:23:24.861Z,1123
2018-01-16T13:23:54.843Z,1190
2018-01-16T13:24:24.927Z,1210
2018-01-16T13:24:54.904Z,1183
2018-01-16T13:25:24.934Z,1160
2018-01-16T13:25:54.976Z,1113
2018-01-16T13:26:25.125Z,1090
2018-01-16T13:26:55.081Z,1077
2018-01-16T13:27:25.115Z,1103
2018-01-16T13:27:55.147Z,1147
2018-01-16T13:28:25.175Z,1177
2018-01-16T13:28:55.157Z,1167
2018-01-16T13:29:25.172Z,1170
2018-01-16T13:29:55.239Z,1177
2018-01-16T13:30:25.278Z,1220
2018-01-16T13:30:55.318Z,1233
2018-01-16T13:31:25.334Z,1223
2018-01-16T13:31:55.430Z,1247
2018-01-16T13:32:25.409Z,1373
2018-01-16T13:32:55.381Z,1343
2018-01-16T13:33:25.479Z,1367
2018-01-16T13:33:55.470Z,1457
2018-01-16T13:34:25.572Z,1693
2018-01-16T13:34:55.534Z,1987
2018-01-16T13:35:25.531Z,2270
2018-01-16T13:36:25.651Z,2367
2018-01-16T13:36:55.692Z,2320
2018-01-16T13:37:25.657Z,2287
2018-01-16T13:37:55.672Z,2210
2018-01-16T13:38:25.711Z,2197
2018-01-16T13:38:55.827Z,2163
2018-01-16T13:39:25.839Z,2143
2018-01-16T13:39:55.793Z,2197
2018-01-16T13:40:25.857Z,2173
2018-01-16T13:40:55.851Z,1940
2018-01-16T13:41:25.933Z,1860
2018-01-16T13:41:55.932Z,1850
2018-01-16T13:42:25.966Z,1787
2018-01-16T13:42:56.064Z,1770
2018-01-16T13:43:26.017Z,1727
2018-01-16T13:44:26.094Z,1700
2018-01-16T13:44:56.103Z,1740
2018-01-16T13:45:26.177Z,1613
2018-01-16T13:45:56.160Z,1643
2018-01-16T13:46:26.339Z,1743
2018-01-16T13:46:56.221Z,1820
2018-01-16T13:47:26.334Z,1853
2018-01-16T13:47:56.585Z,1857
2018-01-16T13:48:26.377Z,1863
2018-01-16T13:48:56.429Z,1897
2018-01-16T13:49:26.468Z,2000
2018-01-16T13:49:56.439Z,1993
2018-01-16T13:50:26.511Z,1847
2018-01-16T13:50:56.528Z,1780
2018-01-16T13:51:26.546Z,1690
2018-01-16T13:51:56.549Z,1490
2018-01-16T13:52:26.586Z,1413
2018-01-16T13:52:56.711Z,1263
2018-01-16T13:53:26.638Z,1143
2018-01-16T13:53:56.658Z,1133
2018-01-16T13:54:26.694Z,1167
2018-01-16T13:54:56.745Z,1260
2018-01-16T13:55:26.792Z,1330
2018-01-16T13:55:56.780Z,1317
2018-01-16T13:56:26.845Z,1267
2018-01-16T13:56:56.856Z,1293
2018-01-16T13:57:26.887Z,1263
2018-01-16T13:57:56.925Z,1250
2018-01-16T13:58:26.941Z,1263
2018-01-16T13:58:56.966Z,1363
2018-01-16T13:59:27.031Z,1353
2018-01-16T13:59:57.040Z,1407
2018-01-16T14:00:27.061Z,1437
2018-01-16T14:00:57.091Z,1457
2018-01-16T14:01:27.132Z,1540
2018-01-16T14:01:57.151Z,1397
2018-01-16T14:02:27.233Z,1493
2018-01-16T14:02:57.224Z,1490
2018-01-16T14:03:27.249Z,1420
2018-01-16T14:03:57.543Z,1333
2018-01-16T14:04:27.339Z,1373
2018-01-16T14:04:57.471Z,1300
2018-01-16T14:05:27.391Z,1520
2018-01-16T14:05:57.425Z,1733
2018-01-16T14:06:27.474Z,1767
2018-01-16T14:06:57.442Z,1833
2018-01-16T14:07:27.575Z,1877
2018-01-16T14:08:27.609Z,1827
2018-01-16T14:08:57.690Z,1803
2018-01-16T14:09:27.647Z,1593
2018-01-16T14:09:57.725Z,1487